createdAt,value
2019-02-27T11:22:35.447Z,12.80
2019-02-27T11:25:07.858Z,14.10
2019-02-27T11:27:38.985Z,13.18
2019-02-27T11:30:15.389Z,14.20
2019-02-27T11:32:45.421Z,13.28
2019-02-27T11:35:15.514Z,12.45
2019-02-27T11:37:47.531Z,12.82
2019-02-27T11:40:19.752Z,12.95
2019-02-27T11:42:49.771Z,12.73
2019-02-27T11:45:23.760Z,12.53
2019-02-27T11:47:51.691Z,13.30
2019-02-27T11:50:21.700Z,14.40
2019-02-27T11:52:52.109Z,14.18
2019-02-27T11:55:24.450Z,15.38
2019-02-27T11:57:54.715Z,15.43
2019-02-27T12:00:27.075Z,15.80
2019-02-27T12:02:57.565Z,16.70
2019-02-27T12:05:33.728Z,16.67
2019-02-27T12:08:00.414Z,14.33
2019-02-27T12:10:32.441Z,14.10
2019-02-27T12:13:02.533Z,13.98
2019-02-27T12:15:32.556Z,13.70
2019-02-27T12:18:02.481Z,13.95
2019-02-27T12:20:32.487Z,14.60
2019-02-27T12:23:02.493Z,14.05
2019-02-27T12:25:32.686Z,14.33
2019-02-27T12:28:04.283Z,15.32
2019-02-27T12:30:37.119Z,14.47
2019-02-27T12:33:06.908Z,15.88
2019-02-27T12:35:37.628Z,13.95
2019-02-27T12:38:08.496Z,14.25
2019-02-27T12:40:38.739Z,15.50
2019-02-27T12:43:08.735Z,15.63
2019-02-27T12:45:38.657Z,14.28
2019-02-27T12:48:08.665Z,14.43
2019-02-27T12:50:38.583Z,14.63
2019-02-27T12:53:08.675Z,14.85
2019-02-27T12:55:38.713Z,14.50
2019-02-27T12:58:08.713Z,16.37
2019-02-27T13:00:39.936Z,15.08
2019-02-27T13:03:10.488Z,15.18
2019-02-27T13:05:40.510Z,16.20
2019-02-27T13:08:11.316Z,15.17
2019-02-27T13:10:42.107Z,14.83
2019-02-27T13:13:12.490Z,14.90
2019-02-27T13:15:43.089Z,14.37
2019-02-27T13:18:14.379Z,13.97
2019-02-27T13:20:45.724Z,14.23
2019-02-27T13:23:18.737Z,14.03
2019-02-27T13:25:49.519Z,12.87
2019-02-27T13:28:21.763Z,12.80
2019-02-27T13:30:52.004Z,12.73
2019-02-27T13:33:22.148Z,13.50
2019-02-27T13:35:53.352Z,12.33
2019-02-27T13:38:23.533Z,13.78
2019-02-27T13:40:54.882Z,15.38
2019-02-27T13:43:27.091Z,13.95
2019-02-27T13:45:57.467Z,13.80
2019-02-27T13:48:27.733Z,13.60
2019-02-27T13:50:59.345Z,12.78
2019-02-27T13:53:29.934Z,12.83
2019-02-27T13:56:01.218Z,13.13
2019-02-27T13:58:35.727Z,12.83
2019-02-27T14:01:05.919Z,15.30
2019-02-27T14:03:37.078Z,12.23
2019-02-27T14:06:09.407Z,12.37
2019-02-27T14:08:41.095Z,11.37
2019-02-27T14:11:11.297Z,12.07
2019-02-27T14:13:43.973Z,11.13
2019-02-27T14:16:14.629Z,12.23
2019-02-27T14:18:49.812Z,10.23
2019-02-27T14:21:17.740Z,8.40
2019-02-27T14:23:49.133Z,9.70
2019-02-27T14:26:19.917Z,7.43
2019-02-27T14:28:52.172Z,8.20
2019-02-27T14:31:21.806Z,9.50
2019-02-27T14:33:54.182Z,8.90
2019-02-27T14:36:24.955Z,8.77
2019-02-27T14:38:56.649Z,8.50
2019-02-27T14:41:28.498Z,8.53
2019-02-27T14:44:00.431Z,8.50
2019-02-27T14:46:31.950Z,8.70
2019-02-27T14:49:03.559Z,8.50
2019-02-27T14:51:33.929Z,7.70
2019-02-27T14:54:05.119Z,7.03
2019-02-27T14:56:37.421Z,6.60
2019-02-27T14:59:08.751Z,7.13
2019-02-27T15:01:39.029Z,8.20
2019-02-27T15:04:09.818Z,9.03
2019-02-27T15:06:41.040Z,8.10
2019-02-27T15:09:11.109Z,6.93
2019-02-27T15:11:41.429Z,7.40
2019-02-27T15:14:11.589Z,7.07
2019-02-27T15:16:42.536Z,6.80
2019-02-27T15:19:13.001Z,7.00
2019-02-27T15:21:46.137Z,6.00
2019-02-27T15:24:14.866Z,8.53
2019-02-27T15:26:45.389Z,8.43
2019-02-27T15:29:15.500Z,8.17
2019-02-27T15:31:46.076Z,9.83
2019-02-27T15:34:16.691Z,8.43
2019-02-27T15:36:46.783Z,8.53
2019-02-27T15:39:21.154Z,9.03
2019-02-27T15:41:51.332Z,8.83
2019-02-27T15:44:21.433Z,9.03
2019-02-27T15:46:53.533Z,10.97
2019-02-27T15:49:23.709Z,9.77
2019-02-27T15:51:53.715Z,11.30
2019-02-27T15:54:24.688Z,9.80
2019-02-27T15:56:55.748Z,9.27
2019-02-27T15:59:26.333Z,10.17
2019-02-27T16:02:02.360Z,8.70
2019-02-27T16:04:29.314Z,9.10
2019-02-27T16:06:59.414Z,9.70
2019-02-27T16:09:31.821Z,9.93
2019-02-27T16:12:01.097Z,10.27
2019-02-27T16:14:31.191Z,9.80
2019-02-27T16:17:02.366Z,10.03
2019-02-27T16:19:32.869Z,9.77
2019-02-27T16:22:04.068Z,9.37
2019-02-27T16:24:34.320Z,9.33
2019-02-27T16:27:04.409Z,10.40
2019-02-27T16:29:34.348Z,10.10
2019-02-27T16:32:06.765Z,9.83
2019-02-27T16:34:37.821Z,11.00
2019-02-27T16:37:08.135Z,10.53
2019-02-27T16:39:41.409Z,11.17
2019-02-27T16:42:10.484Z,11.33
2019-02-27T16:44:40.859Z,12.10
2019-02-27T16:47:10.980Z,12.57
2019-02-27T16:49:40.988Z,12.13
2019-02-27T16:52:14.779Z,12.50
2019-02-27T16:54:50.722Z,11.60
2019-02-27T16:57:24.192Z,10.53
2019-02-27T16:59:52.593Z,10.73
2019-02-27T17:02:22.617Z,12.33
2019-02-27T17:04:52.730Z,11.70
2019-02-27T17:07:25.771Z,10.83
2019-02-27T17:09:54.906Z,10.83
2019-02-27T17:12:24.893Z,10.43
2019-02-27T17:14:58.764Z,9.43
2019-02-27T17:17:29.191Z,9.67
2019-02-27T17:20:00.277Z,8.43
2019-02-27T17:22:33.245Z,10.37
2019-02-27T17:25:03.365Z,9.60
2019-02-27T17:27:33.784Z,8.60
2019-02-27T17:30:04.600Z,9.00
2019-02-27T17:32:36.626Z,8.70
2019-02-27T17:35:09.487Z,8.40
2019-02-27T17:37:39.963Z,8.63
2019-02-27T17:40:15.640Z,7.40
2019-02-27T17:42:53.190Z,9.03
2019-02-27T17:45:25.390Z,7.97
2019-02-27T17:47:58.822Z,7.93
2019-02-27T17:50:31.683Z,8.77
2019-02-27T17:53:01.725Z,8.03
2019-02-27T17:55:31.981Z,7.87
2019-02-27T17:58:02.198Z,8.03
2019-02-27T18:00:33.921Z,7.97
2019-02-27T18:03:05.805Z,7.73
2019-02-27T18:05:35.960Z,8.83
2019-02-27T18:08:06.238Z,8.00
2019-02-27T18:10:37.600Z,8.10
2019-02-27T18:13:08.009Z,7.20
2019-02-27T18:15:38.428Z,7.10
2019-02-27T18:18:10.634Z,7.63
2019-02-27T18:20:40.776Z,7.37
2019-02-27T18:23:11.339Z,6.87
2019-02-27T18:25:42.323Z,7.67
2019-02-27T18:28:13.678Z,7.17
2019-02-27T18:30:44.587Z,6.67
2019-02-27T18:33:17.303Z,7.03
2019-02-27T18:35:51.263Z,5.93
2019-02-27T18:38:21.422Z,6.93
2019-02-27T18:40:52.049Z,7.50
2019-02-27T18:43:23.183Z,7.70
2019-02-27T18:45:53.104Z,6.50
2019-02-27T18:48:23.784Z,6.97
2019-02-27T18:50:55.925Z,6.20
2019-02-27T18:53:25.640Z,6.40
2019-02-27T18:55:55.580Z,5.80
2019-02-27T18:58:25.688Z,5.73
2019-02-27T19:00:55.604Z,6.40
2019-02-27T19:03:26.852Z,5.73
2019-02-27T19:05:57.016Z,6.10
2019-02-27T19:08:28.034Z,5.63
2019-02-27T19:10:59.043Z,5.77
2019-02-27T19:13:31.710Z,6.17
2019-02-27T19:16:00.824Z,5.93
2019-02-27T19:18:31.799Z,6.20
2019-02-27T19:21:02.042Z,8.13
2019-02-27T19:23:33.040Z,9.10
2019-02-27T19:26:06.376Z,8.30
2019-02-27T19:28:35.872Z,8.13
2019-02-27T19:31:06.770Z,6.93
2019-02-27T19:33:39.389Z,7.97
2019-02-27T19:36:18.700Z,7.70
2019-02-27T19:38:44.240Z,8.03
2019-02-27T19:41:14.138Z,7.73
2019-02-27T19:43:44.730Z,6.73
2019-02-27T19:46:15.057Z,6.37
2019-02-27T19:48:45.375Z,6.00
2019-02-27T19:51:17.104Z,6.87
2019-02-27T19:53:47.486Z,6.53
2019-02-27T19:56:17.930Z,8.03
2019-02-27T19:58:48.292Z,7.00
2019-02-27T20:01:20.119Z,7.37
2019-02-27T20:03:50.455Z,8.47
2019-02-27T20:06:20.839Z,8.97
2019-02-27T20:08:52.136Z,9.17
2019-02-27T20:11:23.268Z,8.00
2019-02-27T20:13:54.009Z,8.47
2019-02-27T20:16:25.421Z,9.17
2019-02-27T20:18:55.702Z,9.53
2019-02-27T20:21:26.221Z,9.40
2019-02-27T20:24:01.176Z,8.83
2019-02-27T20:26:28.529Z,8.17
2019-02-27T20:29:04.294Z,8.90
2019-02-27T20:31:32.695Z,8.30
2019-02-27T20:34:03.130Z,8.20
2019-02-27T20:36:33.387Z,9.50
2019-02-27T20:39:05.501Z,9.70
2019-02-27T20:41:39.713Z,8.73
2019-02-27T20:44:08.732Z,8.13
2019-02-27T20:46:39.159Z,7.67
2019-02-27T20:49:10.400Z,5.40
2019-02-27T20:51:41.500Z,5.57
2019-02-27T20:54:11.916Z,5.07
2019-02-27T20:56:42.245Z,5.63
2019-02-27T20:59:15.633Z,5.17
2019-02-27T21:01:47.322Z,5.47
2019-02-27T21:04:18.111Z,3.97
2019-02-27T21:06:48.584Z,4.57
2019-02-27T21:09:18.916Z,5.00
2019-02-27T21:11:49.329Z,5.17
2019-02-27T21:14:20.556Z,5.27
2019-02-27T21:16:51.450Z,5.30
2019-02-27T21:19:21.919Z,5.90
2019-02-27T21:21:54.480Z,6.70
2019-02-27T21:24:25.754Z,6.67
2019-02-27T21:26:57.227Z,6.67
2019-02-27T21:29:28.600Z,6.00
2019-02-27T21:32:02.297Z,5.07
2019-02-27T21:34:32.856Z,5.87
2019-02-27T21:37:03.455Z,5.23
2019-02-27T21:39:34.863Z,4.90
2019-02-27T21:42:06.268Z,4.20
2019-02-27T21:44:38.480Z,4.17
2019-02-27T21:47:09.454Z,5.07
2019-02-27T21:49:39.994Z,5.20
2019-02-27T21:52:10.271Z,5.33
2019-02-27T21:54:40.482Z,5.50
